sensor_id;sensor_type;location;lat;lon;timestamp;P1;P2;P0
47810;PMS5003;33575;52.600;7.318;2022-07-11T00:01:54;8;7;
47810;PMS5003;33575;52.600;7.318;2022-07-11T00:04:25;7;6;
47810;PMS5003;33575;52.600;7.318;2022-07-11T00:06:55;6;6;
47810;PMS5003;33575;52.600;7.318;2022-07-11T00:09:26;9;7;
47810;PMS5003;33575;52.600;7.318;2022-07-11T00:11:56;7;7;
47810;PMS5003;33575;52.600;7.318;2022-07-11T00:14:27;9;7;
47810;PMS5003;33575;52.600;7.318;2022-07-11T00:16:57;5;5;
47810;PMS5003;33575;52.600;7.318;2022-07-11T00:19:28;8;8;
47810;PMS5003;33575;52.600;7.318;2022-07-11T00:21:58;5;4;
47810;PMS5003;33575;52.600;7.318;2022-07-11T00:24:29;4;4;
47810;PMS5003;33575;52.600;7.318;2022-07-11T00:26:59;5;5;
47810;PMS5003;33575;52.600;7.318;2022-07-11T00:29:29;5;5;
47810;PMS5003;33575;52.600;7.318;2022-07-11T00:32:00;5;5;
47810;PMS5003;33575;52.600;7.318;2022-07-11T00:34:30;5;5;
47810;PMS5003;33575;52.600;7.318;2022-07-11T00:37:00;7;5;
47810;PMS5003;33575;52.600;7.318;2022-07-11T00:39:31;4;4;
47810;PMS5003;33575;52.600;7.318;2022-07-11T00:42:01;5;4;
47810;PMS5003;33575;52.600;7.318;2022-07-11T00:44:31;5;5;
47810;PMS5003;33575;52.600;7.318;2022-07-11T00:47:02;4;4;
47810;PMS5003;33575;52.600;7.318;2022-07-11T00:49:32;7;6;
47810;PMS5003;33575;52.600;7.318;2022-07-11T00:52:02;4;4;
47810;PMS5003;33575;52.600;7.318;2022-07-11T00:54:33;3;3;
47810;PMS5003;33575;52.600;7.318;2022-07-11T00:57:04;3;3;
47810;PMS5003;33575;52.600;7.318;2022-07-11T00:59:34;4;4;
47810;PMS5003;33575;52.600;7.318;2022-07-11T01:02:04;3;3;
47810;PMS5003;33575;52.600;7.318;2022-07-11T01:04:35;4;3;
47810;PMS5003;33575;52.600;7.318;2022-07-11T01:07:05;3;3;
47810;PMS5003;33575;52.600;7.318;2022-07-11T01:09:35;5;4;
47810;PMS5003;33575;52.600;7.318;2022-07-11T01:12:06;4;4;
47810;PMS5003;33575;52.600;7.318;2022-07-11T01:14:36;6;4;
47810;PMS5003;33575;52.600;7.318;2022-07-11T01:17:06;4;4;
47810;PMS5003;33575;52.600;7.318;2022-07-11T01:19:37;4;2;
47810;PMS5003;33575;52.600;7.318;2022-07-11T01:22:07;3;3;
47810;PMS5003;33575;52.600;7.318;2022-07-11T01:24:37;4;4;
47810;PMS5003;33575;52.600;7.318;2022-07-11T01:27:08;3;3;
47810;PMS5003;33575;52.600;7.318;2022-07-11T01:29:38;4;4;
47810;PMS5003;33575;52.600;7.318;2022-07-11T01:32:08;2;2;
47810;PMS5003;33575;52.600;7.318;2022-07-11T01:34:39;5;3;
47810;PMS5003;33575;52.600;7.318;2022-07-11T01:37:09;5;4;
47810;PMS5003;33575;52.600;7.318;2022-07-11T01:39:40;3;3;
47810;PMS5003;33575;52.600;7.318;2022-07-11T01:42:10;4;4;
47810;PMS5003;33575;52.600;7.318;2022-07-11T01:44:40;4;3;
47810;PMS5003;33575;52.600;7.318;2022-07-11T01:47:11;5;5;
47810;PMS5003;33575;52.600;7.318;2022-07-11T01:49:41;4;4;
47810;PMS5003;33575;52.600;7.318;2022-07-11T01:52:11;5;5;
47810;PMS5003;33575;52.600;7.318;2022-07-11T01:54:42;4;4;
47810;PMS5003;33575;52.600;7.318;2022-07-11T01:57:12;5;4;
47810;PMS5003;33575;52.600;7.318;2022-07-11T01:59:42;5;4;
47810;PMS5003;33575;52.600;7.318;2022-07-11T02:02:13;4;3;
47810;PMS5003;33575;52.600;7.318;2022-07-11T02:04:43;4;4;
47810;PMS5003;33575;52.600;7.318;2022-07-11T02:07:13;5;5;
47810;PMS5003;33575;52.600;7.318;2022-07-11T02:09:44;4;4;
47810;PMS5003;33575;52.600;7.318;2022-07-11T02:12:14;4;4;
47810;PMS5003;33575;52.600;7.318;2022-07-11T02:14:44;4;4;
47810;PMS5003;33575;52.600;7.318;2022-07-11T02:17:15;5;4;
47810;PMS5003;33575;52.600;7.318;2022-07-11T02:19:45;6;4;
47810;PMS5003;33575;52.600;7.318;2022-07-11T02:22:16;5;4;
47810;PMS5003;33575;52.600;7.318;2022-07-11T02:24:46;5;5;
47810;PMS5003;33575;52.600;7.318;2022-07-11T02:27:16;4;4;
47810;PMS5003;33575;52.600;7.318;2022-07-11T02:29:47;8;5;
47810;PMS5003;33575;52.600;7.318;2022-07-11T02:32:17;5;5;
47810;PMS5003;33575;52.600;7.318;2022-07-11T02:34:47;3;3;
47810;PMS5003;33575;52.600;7.318;2022-07-11T02:37:18;5;4;
47810;PMS5003;33575;52.600;7.318;2022-07-11T02:39:48;6;5;
47810;PMS5003;33575;52.600;7.318;2022-07-11T02:42:18;4;4;
47810;PMS5003;33575;52.600;7.318;2022-07-11T02:44:49;3;3;
47810;PMS5003;33575;52.600;7.318;2022-07-11T02:47:19;4;4;
47810;PMS5003;33575;52.600;7.318;2022-07-11T02:49:50;4;3;
47810;PMS5003;33575;52.600;7.318;2022-07-11T02:52:20;4;4;
47810;PMS5003;33575;52.600;7.318;2022-07-11T02:54:50;4;4;
47810;PMS5003;33575;52.600;7.318;2022-07-11T02:57:21;4;4;
47810;PMS5003;33575;52.600;7.318;2022-07-11T02:59:51;4;4;
47810;PMS5003;33575;52.600;7.318;2022-07-11T03:02:21;4;4;
47810;PMS5003;33575;52.600;7.318;2022-07-11T03:04:52;4;4;
47810;PMS5003;33575;52.600;7.318;2022-07-11T03:07:22;4;4;
47810;PMS5003;33575;52.600;7.318;2022-07-11T03:09:52;4;4;
47810;PMS5003;33575;52.600;7.318;2022-07-11T03:12:22;3;3;
47810;PMS5003;33575;52.600;7.318;2022-07-11T03:14:53;4;3;
47810;PMS5003;33575;52.600;7.318;2022-07-11T03:17:23;2;2;
47810;PMS5003;33575;52.600;7.318;2022-07-11T03:19:53;4;3;
47810;PMS5003;33575;52.600;7.318;2022-07-11T03:22:24;3;3;
47810;PMS5003;33575;52.600;7.318;2022-07-11T03:24:54;4;4;
47810;PMS5003;33575;52.600;7.318;2022-07-11T03:27:24;5;4;
47810;PMS5003;33575;52.600;7.318;2022-07-11T03:29:55;4;3;
47810;PMS5003;33575;52.600;7.318;2022-07-11T03:32:30;4;4;
47810;PMS5003;33575;52.600;7.318;2022-07-11T03:34:56;5;4;
47810;PMS5003;33575;52.600;7.318;2022-07-11T03:37:26;4;4;
47810;PMS5003;33575;52.600;7.318;2022-07-11T03:39:56;4;4;
47810;PMS5003;33575;52.600;7.318;2022-07-11T03:42:27;4;3;
47810;PMS5003;33575;52.600;7.318;2022-07-11T03:44:57;4;3;
47810;PMS5003;33575;52.600;7.318;2022-07-11T03:47:27;3;3;
47810;PMS5003;33575;52.600;7.318;2022-07-11T03:49:57;4;3;
47810;PMS5003;33575;52.600;7.318;2022-07-11T03:52:28;4;4;
47810;PMS5003;33575;52.600;7.318;2022-07-11T03:54:58;3;3;
47810;PMS5003;33575;52.600;7.318;2022-07-11T03:57:29;4;4;
47810;PMS5003;33575;52.600;7.318;2022-07-11T03:59:59;3;3;
47810;PMS5003;33575;52.600;7.318;2022-07-11T04:02:29;4;4;
47810;PMS5003;33575;52.600;7.318;2022-07-11T04:04:59;2;2;
47810;PMS5003;33575;52.600;7.318;2022-07-11T04:07:30;1;1;
47810;PMS5003;33575;52.600;7.318;2022-07-11T04:10:01;1;1;
47810;PMS5003;33575;52.600;7.318;2022-07-11T04:12:31;2;2;
47810;PMS5003;33575;52.600;7.318;2022-07-11T04:15:01;2;2;
47810;PMS5003;33575;52.600;7.318;2022-07-11T04:17:32;3;3;
47810;PMS5003;33575;52.600;7.318;2022-07-11T04:20:02;2;2;
47810;PMS5003;33575;52.600;7.318;2022-07-11T04:22:32;4;4;
47810;PMS5003;33575;52.600;7.318;2022-07-11T04:25:03;3;3;
47810;PMS5003;33575;52.600;7.318;2022-07-11T04:27:38;3;2;
47810;PMS5003;33575;52.600;7.318;2022-07-11T04:30:04;3;3;
47810;PMS5003;33575;52.600;7.318;2022-07-11T04:32:34;3;3;
47810;PMS5003;33575;52.600;7.318;2022-07-11T04:35:04;3;3;
47810;PMS5003;33575;52.600;7.318;2022-07-11T04:37:34;3;3;
47810;PMS5003;33575;52.600;7.318;2022-07-11T04:40:10;3;3;
47810;PMS5003;33575;52.600;7.318;2022-07-11T04:42:35;3;3;
47810;PMS5003;33575;52.600;7.318;2022-07-11T04:45:05;1;1;
47810;PMS5003;33575;52.600;7.318;2022-07-11T04:47:36;2;2;
47810;PMS5003;33575;52.600;7.318;2022-07-11T04:50:06;1;1;
47810;PMS5003;33575;52.600;7.318;2022-07-11T04:52:36;2;2;
47810;PMS5003;33575;52.600;7.318;2022-07-11T04:55:07;2;1;
47810;PMS5003;33575;52.600;7.318;2022-07-11T04:57:37;2;2;
47810;PMS5003;33575;52.600;7.318;2022-07-11T05:00:07;1;1;
47810;PMS5003;33575;52.600;7.318;2022-07-11T05:02:38;1;1;
47810;PMS5003;33575;52.600;7.318;2022-07-11T05:05:08;4;2;
47810;PMS5003;33575;52.600;7.318;2022-07-11T05:07:38;3;3;
47810;PMS5003;33575;52.600;7.318;2022-07-11T05:10:09;2;2;
47810;PMS5003;33575;52.600;7.318;2022-07-11T05:12:39;1;1;
47810;PMS5003;33575;52.600;7.318;2022-07-11T05:15:10;2;2;
47810;PMS5003;33575;52.600;7.318;2022-07-11T05:17:45;2;2;
47810;PMS5003;33575;52.600;7.318;2022-07-11T05:20:10;2;2;
47810;PMS5003;33575;52.600;7.318;2022-07-11T05:22:40;2;2;
47810;PMS5003;33575;52.600;7.318;2022-07-11T05:25:11;0;0;
47810;PMS5003;33575;52.600;7.318;2022-07-11T05:27:41;2;1;
47810;PMS5003;33575;52.600;7.318;2022-07-11T05:30:11;2;2;
47810;PMS5003;33575;52.600;7.318;2022-07-11T05:32:42;1;1;
47810;PMS5003;33575;52.600;7.318;2022-07-11T05:35:12;2;2;
47810;PMS5003;33575;52.600;7.318;2022-07-11T05:37:42;2;2;
47810;PMS5003;33575;52.600;7.318;2022-07-11T05:40:12;1;1;
47810;PMS5003;33575;52.600;7.318;2022-07-11T05:42:43;0;0;
47810;PMS5003;33575;52.600;7.318;2022-07-11T05:45:13;0;0;
47810;PMS5003;33575;52.600;7.318;2022-07-11T05:47:43;1;0;
47810;PMS5003;33575;52.600;7.318;2022-07-11T05:50:14;1;1;
47810;PMS5003;33575;52.600;7.318;2022-07-11T05:52:44;1;1;
47810;PMS5003;33575;52.600;7.318;2022-07-11T05:55:19;0;0;
47810;PMS5003;33575;52.600;7.318;2022-07-11T05:57:45;2;2;
47810;PMS5003;33575;52.600;7.318;2022-07-11T06:00:15;2;1;
47810;PMS5003;33575;52.600;7.318;2022-07-11T06:02:45;0;0;
47810;PMS5003;33575;52.600;7.318;2022-07-11T06:05:16;2;1;
47810;PMS5003;33575;52.600;7.318;2022-07-11T06:07:46;1;1;
47810;PMS5003;33575;52.600;7.318;2022-07-11T06:10:16;1;1;
47810;PMS5003;33575;52.600;7.318;2022-07-11T06:12:47;0;0;
47810;PMS5003;33575;52.600;7.318;2022-07-11T06:15:17;1;1;
47810;PMS5003;33575;52.600;7.318;2022-07-11T06:17:47;1;1;
47810;PMS5003;33575;52.600;7.318;2022-07-11T06:20:18;1;1;
47810;PMS5003;33575;52.600;7.318;2022-07-11T06:22:48;0;0;
47810;PMS5003;33575;52.600;7.318;2022-07-11T06:25:18;0;0;
47810;PMS5003;33575;52.600;7.318;2022-07-11T06:27:53;0;0;
47810;PMS5003;33575;52.600;7.318;2022-07-11T06:30:19;0;0;
47810;PMS5003;33575;52.600;7.318;2022-07-11T06:32:49;0;0;
47810;PMS5003;33575;52.600;7.318;2022-07-11T06:35:20;1;1;
47810;PMS5003;33575;52.600;7.318;2022-07-11T06:37:50;0;0;
47810;PMS5003;33575;52.600;7.318;2022-07-11T06:40:20;0;0;
47810;PMS5003;33575;52.600;7.318;2022-07-11T06:42:50;0;0;
47810;PMS5003;33575;52.600;7.318;2022-07-11T06:45:21;0;0;
47810;PMS5003;33575;52.600;7.318;2022-07-11T06:47:51;1;1;
47810;PMS5003;33575;52.600;7.318;2022-07-11T06:50:21;1;1;
47810;PMS5003;33575;52.600;7.318;2022-07-11T06:52:52;1;1;
47810;PMS5003;33575;52.600;7.318;2022-07-11T06:55:22;0;0;
47810;PMS5003;33575;52.600;7.318;2022-07-11T06:57:57;0;0;
47810;PMS5003;33575;52.600;7.318;2022-07-11T07:00:23;0;0;
47810;PMS5003;33575;52.600;7.318;2022-07-11T07:02:53;0;0;
47810;PMS5003;33575;52.600;7.318;2022-07-11T07:05:23;0;0;
47810;PMS5003;33575;52.600;7.318;2022-07-11T07:07:53;0;0;
47810;PMS5003;33575;52.600;7.318;2022-07-11T07:10:24;1;1;
47810;PMS5003;33575;52.600;7.318;2022-07-11T07:12:54;0;0;
47810;PMS5003;33575;52.600;7.318;2022-07-11T07:15:24;0;0;
47810;PMS5003;33575;52.600;7.318;2022-07-11T07:18:00;0;0;
47810;PMS5003;33575;52.600;7.318;2022-07-11T07:20:25;0;0;
47810;PMS5003;33575;52.600;7.318;2022-07-11T07:22:55;0;0;
47810;PMS5003;33575;52.600;7.318;2022-07-11T07:25:26;1;1;
47810;PMS5003;33575;52.600;7.318;2022-07-11T07:27:56;1;1;
47810;PMS5003;33575;52.600;7.318;2022-07-11T07:30:26;0;0;
47810;PMS5003;33575;52.600;7.318;2022-07-11T07:32:57;0;0;
47810;PMS5003;33575;52.600;7.318;2022-07-11T07:35:27;1;1;
47810;PMS5003;33575;52.600;7.318;2022-07-11T07:37:57;0;0;
47810;PMS5003;33575;52.600;7.318;2022-07-11T07:40:28;0;0;
47810;PMS5003;33575;52.600;7.318;2022-07-11T07:42:58;0;0;
47810;PMS5003;33575;52.600;7.318;2022-07-11T07:45:28;0;0;
47810;PMS5003;33575;52.600;7.318;2022-07-11T07:47:59;0;0;
47810;PMS5003;33575;52.600;7.318;2022-07-11T07:50:29;0;0;
47810;PMS5003;33575;52.600;7.318;2022-07-11T07:52:59;0;0;
47810;PMS5003;33575;52.600;7.318;2022-07-11T07:55:30;0;0;
47810;PMS5003;33575;52.600;7.318;2022-07-11T07:58:00;2;1;
47810;PMS5003;33575;52.600;7.318;2022-07-11T08:00:35;0;0;
47810;PMS5003;33575;52.600;7.318;2022-07-11T08:03:04;0;0;
47810;PMS5003;33575;52.600;7.318;2022-07-11T08:05:31;0;0;
47810;PMS5003;33575;52.600;7.318;2022-07-11T08:08:01;0;0;
47810;PMS5003;33575;52.600;7.318;2022-07-11T08:10:31;0;0;
47810;PMS5003;33575;52.600;7.318;2022-07-11T08:13:02;0;0;
47810;PMS5003;33575;52.600;7.318;2022-07-11T08:15:32;0;0;
47810;PMS5003;33575;52.600;7.318;2022-07-11T08:18:02;0;0;
47810;PMS5003;33575;52.600;7.318;2022-07-11T08:20:33;0;0;
47810;PMS5003;33575;52.600;7.318;2022-07-11T08:23:03;0;0;
47810;PMS5003;33575;52.600;7.318;2022-07-11T08:25:33;0;0;
47810;PMS5003;33575;52.600;7.318;2022-07-11T08:28:04;0;0;
47810;PMS5003;33575;52.600;7.318;2022-07-11T08:30:34;0;0;
47810;PMS5003;33575;52.600;7.318;2022-07-11T08:33:04;0;0;
47810;PMS5003;33575;52.600;7.318;2022-07-11T08:35:34;0;0;
47810;PMS5003;33575;52.600;7.318;2022-07-11T08:38:05;0;0;
47810;PMS5003;33575;52.600;7.318;2022-07-11T08:40:35;0;0;
47810;PMS5003;33575;52.600;7.318;2022-07-11T08:43:10;0;0;
47810;PMS5003;33575;52.600;7.318;2022-07-11T08:45:41;0;0;
47810;PMS5003;33575;52.600;7.318;2022-07-11T08:48:06;0;0;
47810;PMS5003;33575;52.600;7.318;2022-07-11T08:50:37;0;0;
47810;PMS5003;33575;52.600;7.318;2022-07-11T08:53:11;0;0;
47810;PMS5003;33575;52.600;7.318;2022-07-11T08:55:37;0;0;
47810;PMS5003;33575;52.600;7.318;2022-07-11T08:58:07;0;0;
47810;PMS5003;33575;52.600;7.318;2022-07-11T09:00:38;0;0;
47810;PMS5003;33575;52.600;7.318;2022-07-11T09:03:10;0;0;
47810;PMS5003;33575;52.600;7.318;2022-07-11T09:05:38;0;0;
47810;PMS5003;33575;52.600;7.318;2022-07-11T09:08:08;0;0;
47810;PMS5003;33575;52.600;7.318;2022-07-11T09:10:39;0;0;
47810;PMS5003;33575;52.600;7.318;2022-07-11T09:13:09;0;0;
47810;PMS5003;33575;52.600;7.318;2022-07-11T09:15:40;0;0;
47810;PMS5003;33575;52.600;7.318;2022-07-11T09:23:12;0;0;
47810;PMS5003;33575;52.600;7.318;2022-07-11T09:25:41;0;0;
47810;PMS5003;33575;52.600;7.318;2022-07-11T09:28:11;0;0;
47810;PMS5003;33575;52.600;7.318;2022-07-11T09:30:41;0;0;
47810;PMS5003;33575;52.600;7.318;2022-07-11T09:33:12;1;0;
47810;PMS5003;33575;52.600;7.318;2022-07-11T09:35:42;0;0;
47810;PMS5003;33575;52.600;7.318;2022-07-11T09:38:12;0;0;
47810;PMS5003;33575;52.600;7.318;2022-07-11T09:40:43;0;0;
47810;PMS5003;33575;52.600;7.318;2022-07-11T09:43:13;0;0;
47810;PMS5003;33575;52.600;7.318;2022-07-11T09:45:43;0;0;
47810;PMS5003;33575;52.600;7.318;2022-07-11T09:48:13;0;0;
47810;PMS5003;33575;52.600;7.318;2022-07-11T09:53:14;0;0;
47810;PMS5003;33575;52.600;7.318;2022-07-11T09:55:49;0;0;
47810;PMS5003;33575;52.600;7.318;2022-07-11T09:58:15;0;0;
47810;PMS5003;33575;52.600;7.318;2022-07-11T10:00:44;1;0;
47810;PMS5003;33575;52.600;7.318;2022-07-11T10:03:21;0;0;
47810;PMS5003;33575;52.600;7.318;2022-07-11T10:05:45;0;0;
47810;PMS5003;33575;52.600;7.318;2022-07-11T10:08:15;1;1;
47810;PMS5003;33575;52.600;7.318;2022-07-11T10:10:45;1;0;
47810;PMS5003;33575;52.600;7.318;2022-07-11T10:13:16;0;0;
47810;PMS5003;33575;52.600;7.318;2022-07-11T10:15:51;0;0;
47810;PMS5003;33575;52.600;7.318;2022-07-11T10:18:18;1;1;
47810;PMS5003;33575;52.600;7.318;2022-07-11T10:20:48;0;0;
47810;PMS5003;33575;52.600;7.318;2022-07-11T10:23:19;1;0;
47810;PMS5003;33575;52.600;7.318;2022-07-11T10:25:49;0;0;
47810;PMS5003;33575;52.600;7.318;2022-07-11T10:28:22;0;0;
47810;PMS5003;33575;52.600;7.318;2022-07-11T10:30:49;0;0;
47810;PMS5003;33575;52.600;7.318;2022-07-11T10:33:18;0;0;
47810;PMS5003;33575;52.600;7.318;2022-07-11T10:35:49;0;0;
47810;PMS5003;33575;52.600;7.318;2022-07-11T10:38:19;1;0;
47810;PMS5003;33575;52.600;7.318;2022-07-11T10:40:49;0;0;
47810;PMS5003;33575;52.600;7.318;2022-07-11T10:45:54;0;0;
47810;PMS5003;33575;52.600;7.318;2022-07-11T10:48:20;0;0;
47810;PMS5003;33575;52.600;7.318;2022-07-11T10:50:53;1;1;
47810;PMS5003;33575;52.600;7.318;2022-07-11T10:53:22;0;0;
47810;PMS5003;33575;52.600;7.318;2022-07-11T10:55:53;2;2;
47810;PMS5003;33575;52.600;7.318;2022-07-11T10:58:24;1;1;
47810;PMS5003;33575;52.600;7.318;2022-07-11T11:03:22;1;1;
47810;PMS5003;33575;52.600;7.318;2022-07-11T11:05:52;1;1;
47810;PMS5003;33575;52.600;7.318;2022-07-11T11:10:52;0;0;
47810;PMS5003;33575;52.600;7.318;2022-07-11T11:13:22;1;1;
47810;PMS5003;33575;52.600;7.318;2022-07-11T11:15:53;1;1;
47810;PMS5003;33575;52.600;7.318;2022-07-11T11:23:23;1;1;
47810;PMS5003;33575;52.600;7.318;2022-07-11T11:25:54;0;0;
47810;PMS5003;33575;52.600;7.318;2022-07-11T11:28:24;0;0;
47810;PMS5003;33575;52.600;7.318;2022-07-11T11:30:54;1;0;
47810;PMS5003;33575;52.600;7.318;2022-07-11T11:33:25;1;1;
47810;PMS5003;33575;52.600;7.318;2022-07-11T11:35:59;1;1;
47810;PMS5003;33575;52.600;7.318;2022-07-11T11:38:25;0;0;
47810;PMS5003;33575;52.600;7.318;2022-07-11T11:41:00;1;1;
47810;PMS5003;33575;52.600;7.318;2022-07-11T11:43:26;1;1;
47810;PMS5003;33575;52.600;7.318;2022-07-11T11:45:56;0;0;
47810;PMS5003;33575;52.600;7.318;2022-07-11T11:48:27;1;1;
47810;PMS5003;33575;52.600;7.318;2022-07-11T11:51:00;0;0;
47810;PMS5003;33575;52.600;7.318;2022-07-11T11:53:26;1;1;
47810;PMS5003;33575;52.600;7.318;2022-07-11T11:55:57;2;2;
47810;PMS5003;33575;52.600;7.318;2022-07-11T11:58:27;4;4;
47810;PMS5003;33575;52.600;7.318;2022-07-11T12:01:02;4;4;
47810;PMS5003;33575;52.600;7.318;2022-07-11T12:05:58;6;6;
47810;PMS5003;33575;52.600;7.318;2022-07-11T12:08:28;3;3;
47810;PMS5003;33575;52.600;7.318;2022-07-11T12:10:58;2;2;
47810;PMS5003;33575;52.600;7.318;2022-07-11T12:13:29;0;0;
47810;PMS5003;33575;52.600;7.318;2022-07-11T12:15:59;0;0;
47810;PMS5003;33575;52.600;7.318;2022-07-11T12:18:29;1;1;
47810;PMS5003;33575;52.600;7.318;2022-07-11T12:23:30;0;0;
47810;PMS5003;33575;52.600;7.318;2022-07-11T12:26:00;0;0;
47810;PMS5003;33575;52.600;7.318;2022-07-11T12:28:30;2;1;
47810;PMS5003;33575;52.600;7.318;2022-07-11T12:31:00;1;1;
47810;PMS5003;33575;52.600;7.318;2022-07-11T12:33:30;2;2;
47810;PMS5003;33575;52.600;7.318;2022-07-11T12:36:01;0;0;
47810;PMS5003;33575;52.600;7.318;2022-07-11T12:41:02;0;0;
47810;PMS5003;33575;52.600;7.318;2022-07-11T12:46:02;0;0;
47810;PMS5003;33575;52.600;7.318;2022-07-11T12:51:02;1;1;
47810;PMS5003;33575;52.600;7.318;2022-07-11T12:53:33;1;1;
47810;PMS5003;33575;52.600;7.318;2022-07-11T12:56:03;2;2;
47810;PMS5003;33575;52.600;7.318;2022-07-11T12:58:37;2;2;
47810;PMS5003;33575;52.600;7.318;2022-07-11T13:01:03;1;1;
47810;PMS5003;33575;52.600;7.318;2022-07-11T13:03:34;1;1;
47810;PMS5003;33575;52.600;7.318;2022-07-11T13:06:04;2;2;
47810;PMS5003;33575;52.600;7.318;2022-07-11T13:08:34;1;1;
47810;PMS5003;33575;52.600;7.318;2022-07-11T13:11:08;1;1;
47810;PMS5003;33575;52.600;7.318;2022-07-11T13:13:34;1;1;
47810;PMS5003;33575;52.600;7.318;2022-07-11T13:16:05;1;1;
47810;PMS5003;33575;52.600;7.318;2022-07-11T13:18:36;2;2;
47810;PMS5003;33575;52.600;7.318;2022-07-11T13:21:05;1;1;
47810;PMS5003;33575;52.600;7.318;2022-07-11T13:23:36;1;1;
47810;PMS5003;33575;52.600;7.318;2022-07-11T13:26:06;2;2;
47810;PMS5003;33575;52.600;7.318;2022-07-11T13:28:36;2;2;
47810;PMS5003;33575;52.600;7.318;2022-07-11T13:31:11;1;1;
47810;PMS5003;33575;52.600;7.318;2022-07-11T13:33:37;2;2;
47810;PMS5003;33575;52.600;7.318;2022-07-11T13:36:07;2;2;
47810;PMS5003;33575;52.600;7.318;2022-07-11T13:38:37;2;2;
47810;PMS5003;33575;52.600;7.318;2022-07-11T13:41:13;3;3;
47810;PMS5003;33575;52.600;7.318;2022-07-11T13:43:38;3;3;
47810;PMS5003;33575;52.600;7.318;2022-07-11T13:46:08;4;4;
47810;PMS5003;33575;52.600;7.318;2022-07-11T13:48:38;7;7;
47810;PMS5003;33575;52.600;7.318;2022-07-11T13:51:09;8;8;
47810;PMS5003;33575;52.600;7.318;2022-07-11T13:53:39;20;20;
47810;PMS5003;33575;52.600;7.318;2022-07-11T13:56:09;12;12;
47810;PMS5003;33575;52.600;7.318;2022-07-11T13:58:39;9;8;
47810;PMS5003;33575;52.600;7.318;2022-07-11T14:01:10;8;8;
47810;PMS5003;33575;52.600;7.318;2022-07-11T14:03:40;7;7;
47810;PMS5003;33575;52.600;7.318;2022-07-11T14:06:10;7;7;
47810;PMS5003;33575;52.600;7.318;2022-07-11T14:08:41;7;7;
47810;PMS5003;33575;52.600;7.318;2022-07-11T14:11:11;6;6;
47810;PMS5003;33575;52.600;7.318;2022-07-11T14:13:41;8;8;
47810;PMS5003;33575;52.600;7.318;2022-07-11T14:16:16;8;8;
47810;PMS5003;33575;52.600;7.318;2022-07-11T14:18:42;9;9;
47810;PMS5003;33575;52.600;7.318;2022-07-11T14:21:12;11;11;
47810;PMS5003;33575;52.600;7.318;2022-07-11T14:23:42;15;15;
47810;PMS5003;33575;52.600;7.318;2022-07-11T14:26:13;37;37;
47810;PMS5003;33575;52.600;7.318;2022-07-11T14:28:43;92;92;
47810;PMS5003;33575;52.600;7.318;2022-07-11T14:31:14;128;127;
47810;PMS5003;33575;52.600;7.318;2022-07-11T14:33:45;131;131;
47810;PMS5003;33575;52.600;7.318;2022-07-11T14:36:15;128;128;
47810;PMS5003;33575;52.600;7.318;2022-07-11T14:38:45;105;105;
47810;PMS5003;33575;52.600;7.318;2022-07-11T14:41:16;46;46;
47810;PMS5003;33575;52.600;7.318;2022-07-11T14:43:46;91;91;
47810;PMS5003;33575;52.600;7.318;2022-07-11T14:46:18;68;68;
47810;PMS5003;33575;52.600;7.318;2022-07-11T14:48:47;94;94;
47810;PMS5003;33575;52.600;7.318;2022-07-11T14:51:23;129;129;
47810;PMS5003;33575;52.600;7.318;2022-07-11T14:53:48;44;44;
47810;PMS5003;33575;52.600;7.318;2022-07-11T14:56:24;30;30;
47810;PMS5003;33575;52.600;7.318;2022-07-11T14:58:49;26;26;
47810;PMS5003;33575;52.600;7.318;2022-07-11T15:01:19;19;18;
47810;PMS5003;33575;52.600;7.318;2022-07-11T15:03:50;16;16;
47810;PMS5003;33575;52.600;7.318;2022-07-11T15:06:20;15;15;
47810;PMS5003;33575;52.600;7.318;2022-07-11T15:08:50;17;17;
47810;PMS5003;33575;52.600;7.318;2022-07-11T15:11:21;17;17;
47810;PMS5003;33575;52.600;7.318;2022-07-11T15:13:51;19;19;
47810;PMS5003;33575;52.600;7.318;2022-07-11T15:16:21;21;21;
47810;PMS5003;33575;52.600;7.318;2022-07-11T15:18:52;32;32;
47810;PMS5003;33575;52.600;7.318;2022-07-11T15:21:22;40;40;
47810;PMS5003;33575;52.600;7.318;2022-07-11T15:23:52;27;27;
47810;PMS5003;33575;52.600;7.318;2022-07-11T15:26:23;19;19;
47810;PMS5003;33575;52.600;7.318;2022-07-11T15:28:53;14;14;
47810;PMS5003;33575;52.600;7.318;2022-07-11T15:31:23;10;10;
47810;PMS5003;33575;52.600;7.318;2022-07-11T15:33:53;11;11;
47810;PMS5003;33575;52.600;7.318;2022-07-11T15:36:24;12;11;
47810;PMS5003;33575;52.600;7.318;2022-07-11T15:38:55;11;11;
47810;PMS5003;33575;52.600;7.318;2022-07-11T15:41:24;12;12;
47810;PMS5003;33575;52.600;7.318;2022-07-11T15:43:54;10;10;
47810;PMS5003;33575;52.600;7.318;2022-07-11T15:46:30;11;11;
47810;PMS5003;33575;52.600;7.318;2022-07-11T15:48:55;6;6;
47810;PMS5003;33575;52.600;7.318;2022-07-11T15:51:25;1;1;
47810;PMS5003;33575;52.600;7.318;2022-07-11T15:53:55;0;0;
47810;PMS5003;33575;52.600;7.318;2022-07-11T15:56:26;0;0;
47810;PMS5003;33575;52.600;7.318;2022-07-11T15:58:56;2;2;
47810;PMS5003;33575;52.600;7.318;2022-07-11T16:01:26;1;1;
47810;PMS5003;33575;52.600;7.318;2022-07-11T16:03:57;2;2;
47810;PMS5003;33575;52.600;7.318;2022-07-11T16:06:27;1;1;
47810;PMS5003;33575;52.600;7.318;2022-07-11T16:08:57;1;1;
47810;PMS5003;33575;52.600;7.318;2022-07-11T16:11:27;1;1;
47810;PMS5003;33575;52.600;7.318;2022-07-11T16:13:57;2;2;
47810;PMS5003;33575;52.600;7.318;2022-07-11T16:16:27;1;1;
47810;PMS5003;33575;52.600;7.318;2022-07-11T16:18:58;1;1;
47810;PMS5003;33575;52.600;7.318;2022-07-11T16:21:28;0;0;
47810;PMS5003;33575;52.600;7.318;2022-07-11T16:23:58;1;1;
47810;PMS5003;33575;52.600;7.318;2022-07-11T16:26:28;1;1;
47810;PMS5003;33575;52.600;7.318;2022-07-11T16:28:58;1;1;
47810;PMS5003;33575;52.600;7.318;2022-07-11T16:31:29;0;0;
47810;PMS5003;33575;52.600;7.318;2022-07-11T16:33:59;1;1;
47810;PMS5003;33575;52.600;7.318;2022-07-11T16:36:29;0;0;
47810;PMS5003;33575;52.600;7.318;2022-07-11T16:39:00;1;1;
47810;PMS5003;33575;52.600;7.318;2022-07-11T16:41:29;0;0;
47810;PMS5003;33575;52.600;7.318;2022-07-11T16:44:00;1;1;
47810;PMS5003;33575;52.600;7.318;2022-07-11T16:46:30;0;0;
47810;PMS5003;33575;52.600;7.318;2022-07-11T16:49:00;1;1;
47810;PMS5003;33575;52.600;7.318;2022-07-11T16:51:30;1;1;
47810;PMS5003;33575;52.600;7.318;2022-07-11T16:54:00;1;1;
47810;PMS5003;33575;52.600;7.318;2022-07-11T16:56:31;0;0;
47810;PMS5003;33575;52.600;7.318;2022-07-11T16:59:01;1;1;
47810;PMS5003;33575;52.600;7.318;2022-07-11T17:01:31;1;1;
47810;PMS5003;33575;52.600;7.318;2022-07-11T17:04:01;0;0;
47810;PMS5003;33575;52.600;7.318;2022-07-11T17:06:31;2;2;
47810;PMS5003;33575;52.600;7.318;2022-07-11T17:09:02;1;1;
47810;PMS5003;33575;52.600;7.318;2022-07-11T17:11:32;1;1;
47810;PMS5003;33575;52.600;7.318;2022-07-11T17:14:02;2;1;
47810;PMS5003;33575;52.600;7.318;2022-07-11T17:16:33;2;1;
47810;PMS5003;33575;52.600;7.318;2022-07-11T17:19:03;1;1;
47810;PMS5003;33575;52.600;7.318;2022-07-11T17:21:33;1;1;
47810;PMS5003;33575;52.600;7.318;2022-07-11T17:24:03;1;1;
47810;PMS5003;33575;52.600;7.318;2022-07-11T17:26:33;1;1;
47810;PMS5003;33575;52.600;7.318;2022-07-11T17:29:03;1;1;
47810;PMS5003;33575;52.600;7.318;2022-07-11T17:31:34;0;0;
47810;PMS5003;33575;52.600;7.318;2022-07-11T17:34:04;0;0;
47810;PMS5003;33575;52.600;7.318;2022-07-11T17:36:34;2;1;
47810;PMS5003;33575;52.600;7.318;2022-07-11T17:39:04;0;0;
47810;PMS5003;33575;52.600;7.318;2022-07-11T17:41:35;1;1;